Denny Creek, Washington
Current Conditions -  °F | °C
As of 8:00 AM on Friday 31 Oct 2014 (Local Time) from KRNT Reporting Station
Moderate Rain Moderate Rain  
Wind Chill: 52°   Ceiling: 800
Heat Index: 52°   Visibility: 2.5mi
Dew Point: 51°   Wind: 5mph
Humidity: 97%   Direction: 180°S
Pressure: 29.7"   Gusts: NA
Location:  47.4594°N, 121.612°W
Report Text: KRNT 311500Z 18004KT 2 1/2SM RA BR OVC008 11/11 A2970 RMK AO2 CIG 005V011 P0002 T01110106
Loading
Personal Weather Stations






























Interactive Weather Map
Tropical Storm Tracking
New forecast layout! Learn more

10-Day Weather Forecast

Advertisements
Track Severe Weather on mobile